createdAt,value
2022-09-06T00:00:17.984Z,68.07
2022-09-06T00:02:45.530Z,67.99
2022-09-06T00:05:13.574Z,67.42
2022-09-06T00:07:40.570Z,67.25
2022-09-06T00:10:08.609Z,67.20
2022-09-06T00:12:35.806Z,67.39
2022-09-06T00:15:04.184Z,67.47
2022-09-06T00:17:32.113Z,67.16
2022-09-06T00:19:58.932Z,67.23
2022-09-06T00:22:25.711Z,67.20
2022-09-06T00:24:52.457Z,66.83
2022-09-06T00:27:19.398Z,67.20
2022-09-06T00:29:46.172Z,67.53
2022-09-06T00:32:13.121Z,67.51
2022-09-06T00:34:39.878Z,67.62
2022-09-06T00:37:06.663Z,67.73
2022-09-06T00:39:33.561Z,68.05
2022-09-06T00:42:00.353Z,68.10
2022-09-06T00:44:27.240Z,68.07
2022-09-06T00:46:55.458Z,68.20
2022-09-06T00:49:29.156Z,68.43
2022-09-06T00:52:03.690Z,68.34
2022-09-06T00:54:31.219Z,68.45
2022-09-06T00:56:58.965Z,68.47
2022-09-06T00:59:31.556Z,68.36
2022-09-06T01:01:58.946Z,68.66
2022-09-06T01:04:27.209Z,68.39
2022-09-06T01:07:23.222Z,68.23
2022-09-06T01:10:02.076Z,68.16
2022-09-06T01:12:44.115Z,68.15
2022-09-06T01:15:47.623Z,68.18
2022-09-06T01:18:26.568Z,68.87
2022-09-06T01:21:31.983Z,69.43
2022-09-06T01:24:06.174Z,69.26
2022-09-06T01:27:10.255Z,69.09
2022-09-06T01:29:50.367Z,69.26
2022-09-06T01:32:36.460Z,69.54
2022-09-06T01:35:13.388Z,70.22
2022-09-06T01:37:40.235Z,70.30
2022-09-06T01:40:07.716Z,69.92
2022-09-06T01:42:36.170Z,70.06
2022-09-06T01:45:11.216Z,69.84
2022-09-06T01:47:46.733Z,70.01
2022-09-06T01:50:16.348Z,70.12
2022-09-06T01:53:15.542Z,70.84
2022-09-06T01:56:10.346Z,70.76
2022-09-06T01:58:42.908Z,70.82
2022-09-06T02:01:16.435Z,70.90
2022-09-06T02:04:09.438Z,70.85
2022-09-06T02:06:43.894Z,70.75
2022-09-06T02:09:19.541Z,70.63
2022-09-06T02:11:54.701Z,71.04
2022-09-06T02:14:27.763Z,71.34
2022-09-06T02:16:56.308Z,71.43
2022-09-06T02:19:59.031Z,71.77
2022-09-06T02:22:28.038Z,72.20
2022-09-06T02:24:58.514Z,72.27
2022-09-06T02:27:25.604Z,72.06
2022-09-06T02:29:52.443Z,72.56
2022-09-06T02:32:24.668Z,72.74
2022-09-06T02:34:52.365Z,72.94
2022-09-06T02:37:19.634Z,72.72
2022-09-06T02:39:46.500Z,73.08
2022-09-06T02:42:15.583Z,73.04
2022-09-06T02:44:42.327Z,73.22
2022-09-06T02:47:09.137Z,73.10
2022-09-06T02:49:36.752Z,73.29
2022-09-06T02:52:03.752Z,73.42
2022-09-06T02:54:31.269Z,73.61
2022-09-06T02:56:58.147Z,73.66
2022-09-06T02:59:24.997Z,73.81
2022-09-06T03:01:51.745Z,74.15
2022-09-06T03:04:18.734Z,74.04
2022-09-06T03:06:45.817Z,73.62
2022-09-06T03:09:12.826Z,74.04
2022-09-06T03:11:39.563Z,74.39
2022-09-06T03:14:06.452Z,74.53
2022-09-06T03:16:33.287Z,75.04
2022-09-06T03:19:00.138Z,74.91
2022-09-06T03:21:27.174Z,75.08
2022-09-06T03:23:54.838Z,74.98
2022-09-06T03:26:22.085Z,75.36
2022-09-06T03:28:50.260Z,75.40
2022-09-06T03:31:17.549Z,75.21
2022-09-06T03:33:44.382Z,75.17
2022-09-06T03:36:11.239Z,75.44
2022-09-06T03:38:38.241Z,75.35
2022-09-06T03:41:05.038Z,75.32
2022-09-06T03:43:32.409Z,75.44
2022-09-06T03:45:59.230Z,75.47
2022-09-06T03:48:29.516Z,75.98
2022-09-06T03:50:58.593Z,75.76
2022-09-06T03:53:26.696Z,76.03
2022-09-06T03:55:55.245Z,76.09
2022-09-06T03:58:24.093Z,76.46
2022-09-06T04:01:05.389Z,76.64
2022-09-06T04:03:33.172Z,76.57
2022-09-06T04:06:00.201Z,76.14
2022-09-06T04:08:27.087Z,75.96
2022-09-06T04:10:55.295Z,75.87
2022-09-06T04:13:23.372Z,75.76
2022-09-06T04:15:51.133Z,75.87
2022-09-06T04:18:19.241Z,75.69
2022-09-06T04:20:49.381Z,75.83
2022-09-06T04:23:16.757Z,75.58
2022-09-06T04:25:52.132Z,75.39
2022-09-06T04:28:19.875Z,75.55
2022-09-06T04:31:04.696Z,75.71
2022-09-06T04:33:34.083Z,75.95
2022-09-06T04:36:02.300Z,75.32
2022-09-06T04:38:31.159Z,74.60
2022-09-06T04:40:58.006Z,74.02
2022-09-06T04:43:24.873Z,73.25
2022-09-06T04:45:51.742Z,72.39
2022-09-06T04:48:18.747Z,70.89
2022-09-06T04:50:45.528Z,67.61
2022-09-06T04:53:12.404Z,65.24
2022-09-06T04:55:39.204Z,63.93
2022-09-06T04:58:06.390Z,62.21
2022-09-06T05:00:35.599Z,63.79
2022-09-06T05:03:02.439Z,64.93
2022-09-06T05:05:29.221Z,65.26
2022-09-06T05:07:56.783Z,65.51
2022-09-06T05:10:24.599Z,65.32
2022-09-06T05:12:53.709Z,65.95
2022-09-06T05:15:22.379Z,66.45
2022-09-06T05:17:49.158Z,66.26
2022-09-06T05:20:16.444Z,66.38
2022-09-06T05:22:43.208Z,66.62
2022-09-06T05:25:10.797Z,66.81
2022-09-06T05:27:37.544Z,67.12
2022-09-06T05:30:04.837Z,67.44
2022-09-06T05:32:31.763Z,67.20
2022-09-06T05:34:58.559Z,67.09
2022-09-06T05:37:25.414Z,67.26
2022-09-06T05:39:52.547Z,67.19
2022-09-06T05:42:19.621Z,66.82
2022-09-06T05:44:46.630Z,66.21
2022-09-06T05:47:13.676Z,66.08
2022-09-06T05:49:40.522Z,65.33
2022-09-06T05:52:07.265Z,64.91
2022-09-06T05:54:34.061Z,64.01
2022-09-06T05:57:00.829Z,64.61
2022-09-06T05:59:27.631Z,64.97
2022-09-06T06:01:54.744Z,63.86
2022-09-06T06:04:22.525Z,64.33
2022-09-06T06:06:49.609Z,63.64
2022-09-06T06:09:17.681Z,63.72
2022-09-06T06:11:44.628Z,63.85
2022-09-06T06:14:11.594Z,62.48
2022-09-06T06:16:38.610Z,61.51
2022-09-06T06:19:05.638Z,58.38
2022-09-06T06:21:33.603Z,53.81
2022-09-06T06:24:05.134Z,52.31
2022-09-06T06:26:34.716Z,53.72
2022-09-06T06:29:05.934Z,54.34
2022-09-06T06:31:33.432Z,52.98
2022-09-06T06:34:02.897Z,52.33
2022-09-06T06:36:31.645Z,51.62
2022-09-06T06:38:58.904Z,51.12
2022-09-06T06:41:28.310Z,51.64
2022-09-06T06:43:57.014Z,50.64
2022-09-06T06:46:26.033Z,46.15
2022-09-06T06:48:55.216Z,48.06
2022-09-06T06:51:24.429Z,45.04
2022-09-06T06:53:51.666Z,44.32
2022-09-06T06:56:18.435Z,47.15
2022-09-06T06:58:46.614Z,48.28
2022-09-06T07:01:14.003Z,44.56
2022-09-06T07:03:40.941Z,44.28
2022-09-06T07:08:40.624Z,41.59
2022-09-06T07:11:10.048Z,42.06
2022-09-06T07:13:37.347Z,44.38
2022-09-06T07:16:22.797Z,41.76
2022-09-06T07:18:54.472Z,40.95
2022-09-06T07:26:38.560Z,38.20
2022-09-06T07:29:06.538Z,39.73
2022-09-06T07:34:22.314Z,35.80
2022-09-06T07:36:52.826Z,35.84
2022-09-06T07:39:19.578Z,38.04
2022-09-06T07:41:46.439Z,36.74
2022-09-06T07:44:13.195Z,36.79
2022-09-06T07:46:40.251Z,36.52
2022-09-06T07:49:07.456Z,34.45
2022-09-06T07:51:34.295Z,36.19
2022-09-06T07:56:47.946Z,36.70
2022-09-06T07:59:14.841Z,34.94
2022-09-06T08:01:42.265Z,36.17
2022-09-06T08:04:12.869Z,37.85
2022-09-06T08:09:29.326Z,36.94
2022-09-06T08:11:56.158Z,37.65
2022-09-06T08:14:22.892Z,37.65
2022-09-06T08:16:50.271Z,37.25
2022-09-06T08:19:18.426Z,38.85
2022-09-06T08:21:45.299Z,37.30
2022-09-06T08:24:12.125Z,36.61
2022-09-06T08:26:40.720Z,37.86
2022-09-06T08:29:08.933Z,39.21
2022-09-06T08:31:38.598Z,40.17
2022-09-06T08:34:05.884Z,39.42
2022-09-06T08:36:34.021Z,38.63
2022-09-06T08:39:03.424Z,40.70
2022-09-06T08:41:31.496Z,40.87
2022-09-06T08:46:59.175Z,43.56
2022-09-06T08:49:30.604Z,43.95
2022-09-06T08:52:19.077Z,42.83
2022-09-06T08:54:48.588Z,42.31
2022-09-06T08:57:24.391Z,43.79
2022-09-06T08:59:57.488Z,42.79
2022-09-06T09:02:24.286Z,42.54
2022-09-06T09:05:02.822Z,42.07
2022-09-06T09:08:00.105Z,41.77
2022-09-06T09:10:30.848Z,41.35
2022-09-06T09:12:59.536Z,41.61
2022-09-06T09:15:26.330Z,41.96
2022-09-06T09:17:53.755Z,42.03
2022-09-06T09:20:21.820Z,41.24
2022-09-06T09:22:48.977Z,41.83
2022-09-06T09:25:24.151Z,41.98
2022-09-06T09:27:57.980Z,40.81
2022-09-06T09:33:40.340Z,40.16
2022-09-06T09:36:11.308Z,39.64
2022-09-06T09:38:46.419Z,40.53
2022-09-06T09:41:34.032Z,39.99
2022-09-06T09:44:05.172Z,40.06
2022-09-06T09:46:37.300Z,39.53
2022-09-06T09:49:22.002Z,41.56
2022-09-06T09:52:05.597Z,41.66
2022-09-06T09:54:37.132Z,40.70
2022-09-06T09:57:17.042Z,40.94
2022-09-06T09:59:48.327Z,39.97
2022-09-06T10:02:44.438Z,40.12
2022-09-06T10:05:16.042Z,39.94
2022-09-06T10:07:50.269Z,38.88
2022-09-06T10:10:28.845Z,38.84
2022-09-06T10:13:14.090Z,37.94
2022-09-06T10:15:41.753Z,39.21
2022-09-06T10:18:38.808Z,40.58
2022-09-06T10:21:13.814Z,40.63
2022-09-06T10:26:55.963Z,40.64
2022-09-06T10:29:38.645Z,40.57
2022-09-06T10:32:30.806Z,39.34
2022-09-06T10:35:10.986Z,40.58
2022-09-06T10:38:01.086Z,39.52
2022-09-06T10:40:37.743Z,39.13
2022-09-06T10:43:08.519Z,38.33
2022-09-06T10:45:50.205Z,38.70
2022-09-06T10:48:24.630Z,38.42
2022-09-06T10:51:10.313Z,38.47
2022-09-06T10:53:39.733Z,37.59
2022-09-06T10:56:11.423Z,37.92
2022-09-06T11:01:37.875Z,38.71
2022-09-06T11:04:20.187Z,38.27
2022-09-06T11:06:53.728Z,38.77
2022-09-06T11:09:29.575Z,39.68
2022-09-06T11:12:12.516Z,39.92
2022-09-06T11:14:40.868Z,39.44
2022-09-06T11:17:20.694Z,40.40
2022-09-06T11:20:11.531Z,40.09
2022-09-06T11:22:38.268Z,41.55
2022-09-06T11:25:22.697Z,41.74
2022-09-06T11:27:58.127Z,41.98
2022-09-06T11:30:26.840Z,41.71
2022-09-06T11:33:10.518Z,41.77
2022-09-06T11:35:38.911Z,43.27
2022-09-06T11:38:16.999Z,42.12
2022-09-06T11:40:48.263Z,42.72
2022-09-06T11:43:38.117Z,42.25
2022-09-06T11:46:04.857Z,42.59
2022-09-06T11:48:48.461Z,43.06
2022-09-06T11:51:32.615Z,43.69
2022-09-06T11:53:59.297Z,42.69
2022-09-06T11:56:36.131Z,41.19
2022-09-06T11:59:23.712Z,40.53
2022-09-06T12:01:56.501Z,40.90
2022-09-06T12:04:23.943Z,42.10
2022-09-06T12:07:11.676Z,40.61
2022-09-06T12:09:39.591Z,42.38
2022-09-06T12:12:07.019Z,43.30
2022-09-06T12:14:43.177Z,43.27
2022-09-06T12:17:09.973Z,42.93
2022-09-06T12:19:45.607Z,42.88
2022-09-06T12:22:27.588Z,42.20
2022-09-06T12:25:04.007Z,43.08
2022-09-06T12:27:32.399Z,41.39
2022-09-06T12:30:09.012Z,41.62
2022-09-06T12:32:48.439Z,41.06
2022-09-06T12:38:17.230Z,42.31
2022-09-06T12:40:51.979Z,43.06
2022-09-06T12:43:19.944Z,42.48
2022-09-06T12:45:51.570Z,42.65
2022-09-06T12:48:33.538Z,41.94
2022-09-06T12:51:16.188Z,41.76
2022-09-06T12:53:59.531Z,41.74
2022-09-06T12:56:28.988Z,42.12
2022-09-06T12:59:19.432Z,41.45
2022-09-06T13:02:05.664Z,42.03
2022-09-06T13:04:35.214Z,43.05
2022-09-06T13:07:04.592Z,42.07
2022-09-06T13:09:32.200Z,42.35
2022-09-06T13:12:10.685Z,42.11
2022-09-06T13:14:37.662Z,41.42
2022-09-06T13:17:05.212Z,41.42
2022-09-06T13:19:39.334Z,42.43
2022-09-06T13:22:08.725Z,42.88
2022-09-06T13:24:35.524Z,41.42
2022-09-06T13:27:24.073Z,41.35
2022-09-06T13:29:59.932Z,42.42
2022-09-06T13:32:28.259Z,41.68
2022-09-06T13:34:57.477Z,41.22
2022-09-06T13:37:26.836Z,42.03
2022-09-06T13:39:53.664Z,41.99
2022-09-06T13:42:26.708Z,41.97
2022-09-06T13:44:53.519Z,41.83
2022-09-06T13:47:20.305Z,42.14
2022-09-06T13:49:47.313Z,41.08
2022-09-06T13:52:14.561Z,40.78
2022-09-06T13:54:41.310Z,40.91
2022-09-06T13:57:09.822Z,40.91
2022-09-06T13:59:36.946Z,40.53
2022-09-06T14:02:13.087Z,40.65
2022-09-06T14:04:40.289Z,40.53
2022-09-06T14:07:07.235Z,41.36
2022-09-06T14:09:34.115Z,41.20
2022-09-06T14:12:33.535Z,41.38
2022-09-06T14:15:00.820Z,41.40
2022-09-06T14:17:27.635Z,41.58
2022-09-06T14:19:54.723Z,41.22
2022-09-06T14:22:21.662Z,40.76
2022-09-06T14:24:49.169Z,40.91
2022-09-06T14:27:15.976Z,40.88
2022-09-06T14:29:42.804Z,41.42
2022-09-06T14:32:10.146Z,41.55
2022-09-06T14:34:36.884Z,41.46
2022-09-06T14:37:03.717Z,41.09
2022-09-06T14:39:30.600Z,41.58
2022-09-06T14:41:57.473Z,41.54
2022-09-06T14:44:24.463Z,41.11
2022-09-06T14:46:53.506Z,41.61
2022-09-06T14:49:25.269Z,41.88
2022-09-06T14:51:53.878Z,41.92
2022-09-06T14:54:20.952Z,42.06
2022-09-06T14:56:48.242Z,42.30
2022-09-06T14:59:15.228Z,42.96
2022-09-06T15:01:42.221Z,43.15
2022-09-06T15:04:10.825Z,42.94
2022-09-06T15:06:40.410Z,43.10
2022-09-06T15:09:08.042Z,42.51
2022-09-06T15:11:38.397Z,43.12
2022-09-06T15:14:08.367Z,43.39
2022-09-06T15:16:36.258Z,43.53
2022-09-06T15:19:03.566Z,43.82
2022-09-06T15:21:31.307Z,43.57
2022-09-06T15:23:58.186Z,43.50
2022-09-06T15:26:25.233Z,43.17
2022-09-06T15:28:52.446Z,43.91
2022-09-06T15:31:20.143Z,43.80
2022-09-06T15:33:48.982Z,44.04
2022-09-06T15:36:16.349Z,44.12
2022-09-06T15:38:48.773Z,44.10
2022-09-06T15:41:24.893Z,43.95
2022-09-06T15:43:56.737Z,44.50
2022-09-06T15:46:35.726Z,44.63
2022-09-06T15:49:07.010Z,44.58
2022-09-06T15:51:35.444Z,44.90
2022-09-06T15:54:02.744Z,44.52
2022-09-06T15:56:29.674Z,44.79
2022-09-06T15:58:56.482Z,44.53
2022-09-06T16:01:25.852Z,45.30
2022-09-06T16:03:54.482Z,44.98
2022-09-06T16:09:05.263Z,44.87
2022-09-06T16:11:33.785Z,45.17
2022-09-06T16:14:00.644Z,44.95
2022-09-06T16:16:28.588Z,44.90
2022-09-06T16:18:55.541Z,44.70
2022-09-06T16:21:24.829Z,44.86
2022-09-06T16:23:54.706Z,45.22
2022-09-06T16:26:23.381Z,45.42
2022-09-06T16:28:51.630Z,45.25
2022-09-06T16:31:20.523Z,45.23
2022-09-06T16:33:48.994Z,45.17
2022-09-06T16:36:17.256Z,45.20
2022-09-06T16:38:44.861Z,45.43
2022-09-06T16:41:17.283Z,45.46
2022-09-06T16:43:45.909Z,45.47
2022-09-06T16:46:13.468Z,45.51
2022-09-06T16:48:43.136Z,45.28
2022-09-06T16:51:16.260Z,45.19
2022-09-06T16:53:45.593Z,45.60
2022-09-06T16:56:15.596Z,45.93
2022-09-06T16:58:44.314Z,46.10
2022-09-06T17:01:11.320Z,46.50
2022-09-06T17:03:39.027Z,46.64
2022-09-06T17:06:07.324Z,47.05
2022-09-06T17:08:36.502Z,47.21
2022-09-06T17:11:06.170Z,47.37
2022-09-06T17:13:33.498Z,47.59
2022-09-06T17:16:22.032Z,47.82
2022-09-06T17:18:49.790Z,48.10
2022-09-06T17:21:16.656Z,48.52
2022-09-06T17:23:43.664Z,49.03
2022-09-06T17:26:10.621Z,49.08
2022-09-06T17:28:38.392Z,49.75
2022-09-06T17:31:05.888Z,50.03
2022-09-06T17:33:34.035Z,50.33
2022-09-06T17:36:11.954Z,50.17
2022-09-06T17:38:40.170Z,50.38
2022-09-06T17:41:07.646Z,50.33
2022-09-06T17:43:37.395Z,50.47
2022-09-06T17:46:04.836Z,50.85
2022-09-06T17:48:31.722Z,51.22
2022-09-06T17:51:08.482Z,51.30
2022-09-06T17:53:36.336Z,51.28
2022-09-06T17:56:10.502Z,51.44
2022-09-06T17:58:38.872Z,51.85
2022-09-06T18:01:11.075Z,51.51
2022-09-06T18:03:42.592Z,51.66
2022-09-06T18:06:12.430Z,51.73
2022-09-06T18:08:42.599Z,52.01
2022-09-06T18:11:11.934Z,52.31
2022-09-06T18:13:38.993Z,52.17
2022-09-06T18:16:06.438Z,53.09
2022-09-06T18:18:34.252Z,52.68
2022-09-06T18:21:01.867Z,52.97
2022-09-06T18:23:30.246Z,53.67
2022-09-06T18:25:58.822Z,53.27
2022-09-06T18:28:27.642Z,53.66
2022-09-06T18:30:58.547Z,53.97
2022-09-06T18:33:26.055Z,53.98
2022-09-06T18:35:53.034Z,53.88
2022-09-06T18:38:19.975Z,54.29
2022-09-06T18:41:01.835Z,54.96
2022-09-06T18:43:36.223Z,55.33
2022-09-06T18:46:08.542Z,55.68
2022-09-06T18:48:36.728Z,56.03
2022-09-06T18:51:11.863Z,56.15
2022-09-06T18:53:44.454Z,55.70
2022-09-06T18:56:14.167Z,56.00
2022-09-06T18:58:41.791Z,56.96
2022-09-06T19:01:11.514Z,57.15
2022-09-06T19:03:39.613Z,57.18
2022-09-06T19:06:09.519Z,57.44
2022-09-06T19:08:36.398Z,58.43
2022-09-06T19:11:10.334Z,58.41
2022-09-06T19:13:39.249Z,58.85
2022-09-06T19:16:07.104Z,58.96
2022-09-06T19:18:35.505Z,58.61
2022-09-06T19:21:11.213Z,58.83
2022-09-06T19:23:40.649Z,59.31
2022-09-06T19:26:19.515Z,59.70
2022-09-06T19:28:57.370Z,59.89
2022-09-06T19:31:27.018Z,60.38
2022-09-06T19:33:55.326Z,60.58
2022-09-06T19:36:23.443Z,60.70
2022-09-06T19:39:05.928Z,61.13
2022-09-06T19:41:37.911Z,61.30
2022-09-06T19:44:07.774Z,61.26
2022-09-06T19:46:35.226Z,61.05
2022-09-06T19:49:02.375Z,60.84
2022-09-06T19:51:29.507Z,60.95
2022-09-06T19:54:00.138Z,60.70
2022-09-06T19:56:34.230Z,61.07
2022-09-06T19:59:06.545Z,61.43
2022-09-06T20:01:35.941Z,61.60
2022-09-06T20:04:05.130Z,61.71
2022-09-06T20:06:31.969Z,61.70
2022-09-06T20:09:00.651Z,61.58
2022-09-06T20:11:29.708Z,62.27
2022-09-06T20:13:56.865Z,63.11
2022-09-06T20:16:27.627Z,63.16
2022-09-06T20:18:55.368Z,62.41
2022-09-06T20:21:22.526Z,62.44
2022-09-06T20:23:51.188Z,62.49
2022-09-06T20:26:18.442Z,63.69
2022-09-06T20:28:46.187Z,63.69
2022-09-06T20:31:19.072Z,63.38
2022-09-06T20:33:49.688Z,64.01
2022-09-06T20:36:17.717Z,64.13
2022-09-06T20:38:46.162Z,64.33
2022-09-06T20:41:24.634Z,65.57
2022-09-06T20:43:53.406Z,66.36
2022-09-06T20:46:22.760Z,66.03
2022-09-06T20:48:50.279Z,65.84
2022-09-06T20:51:19.927Z,65.77
2022-09-06T20:53:48.703Z,65.38
2022-09-06T20:56:18.300Z,65.29
2022-09-06T20:59:12.752Z,65.64
2022-09-06T21:01:45.819Z,65.70
2022-09-06T21:04:15.296Z,65.92
2022-09-06T21:06:42.536Z,66.14
2022-09-06T21:09:12.065Z,66.33
2022-09-06T21:11:38.960Z,66.89
2022-09-06T21:14:06.609Z,66.92
2022-09-06T21:16:33.888Z,67.19
2022-09-06T21:19:06.395Z,67.16
2022-09-06T21:21:34.776Z,67.40
2022-09-06T21:24:03.369Z,68.05
2022-09-06T21:26:30.583Z,67.94
2022-09-06T21:28:58.024Z,68.14
2022-09-06T21:31:27.601Z,68.31
2022-09-06T21:33:57.161Z,68.71
2022-09-06T21:36:30.105Z,69.16
2022-09-06T21:39:01.823Z,68.99
2022-09-06T21:41:29.680Z,69.18
2022-09-06T21:43:58.922Z,69.20
2022-09-06T21:46:32.617Z,69.58
2022-09-06T21:49:01.877Z,69.76
2022-09-06T21:51:28.652Z,69.82
2022-09-06T21:53:57.082Z,70.28
2022-09-06T21:56:25.026Z,70.21
2022-09-06T21:58:55.448Z,70.43
2022-09-06T22:01:23.978Z,70.05
2022-09-06T22:03:51.609Z,70.40
2022-09-06T22:06:23.012Z,70.76
2022-09-06T22:08:49.832Z,71.10
2022-09-06T22:11:19.268Z,71.69
2022-09-06T22:13:46.989Z,71.56
2022-09-06T22:16:16.978Z,71.06
2022-09-06T22:18:44.961Z,71.48
2022-09-06T22:21:18.429Z,71.19
2022-09-06T22:23:56.758Z,71.55
2022-09-06T22:26:25.172Z,70.56
2022-09-06T22:29:00.269Z,70.96
2022-09-06T22:31:28.795Z,70.78
2022-09-06T22:33:56.815Z,71.28
2022-09-06T22:36:24.045Z,71.71
2022-09-06T22:38:56.342Z,72.51
2022-09-06T22:41:27.202Z,72.47
2022-09-06T22:43:54.324Z,72.61
2022-09-06T22:46:21.769Z,72.53
2022-09-06T22:48:49.398Z,72.46
2022-09-06T22:51:16.339Z,73.04
2022-09-06T22:53:43.200Z,72.91
2022-09-06T22:56:10.569Z,72.78
2022-09-06T22:58:37.543Z,72.46
2022-09-06T23:01:09.549Z,72.35
2022-09-06T23:03:36.785Z,72.47
2022-09-06T23:06:03.950Z,72.86
2022-09-06T23:08:32.187Z,72.61
2022-09-06T23:11:04.680Z,71.79
2022-09-06T23:13:31.594Z,71.93
2022-09-06T23:16:04.015Z,72.96
2022-09-06T23:18:31.071Z,73.33
2022-09-06T23:20:58.013Z,73.39
2022-09-06T23:23:25.045Z,73.46
2022-09-06T23:25:51.986Z,73.22
2022-09-06T23:28:18.784Z,72.92
2022-09-06T23:30:46.120Z,72.65
2022-09-06T23:33:12.909Z,72.19
2022-09-06T23:35:39.850Z,72.25
2022-09-06T23:38:06.596Z,72.87
2022-09-06T23:40:33.522Z,73.28
2022-09-06T23:43:00.708Z,73.13
2022-09-06T23:45:27.749Z,73.27
2022-09-06T23:47:54.500Z,73.70
2022-09-06T23:50:21.400Z,73.39
2022-09-06T23:52:48.443Z,73.59
2022-09-06T23:55:15.282Z,73.67
2022-09-06T23:57:42.051Z,73.67
